Drucken
vwd group

Indexkurslisten

ZeitKursKurs (Vortag)% (Vortag)Kurs (1 Jahr)% (1 Jahr)
Gewinner
UNDER ARMOUR A... 21.09.18 17,49 17,49 +8,43 4,542 +25,97%
BEST BUY 21.09.18 68,97 68,97 +2,86 34,916 +50,63%
PETE ANADARKO 21.09.18 55,44 55,44 +2,38 19,848 +35,80%
BROWN-FORMAN CORP B... 21.09.18 42,51 42,51 +2,02 6,671 +15,69%
CISCO 21.09.18 41,24 41,24 +1,80 20,503 +49,72%
AMD 21.09.18 26,74 26,74 +1,75 37,647 +140,79%
HESS CORP. ... 21.09.18 59,93 59,93 +1,73 36,271 +60,52%
AT&T 21.09.18 28,92 28,92 +1,69 -2,752 -9,52%
CHURCH + DWIGHT CO... 21.09.18 51,24 51,24 +1,49 12,722 +24,83%
CONAGRA FOODS 21.09.18 31,73 31,73 +1,34 3,615 +11,39%
AUTOM. DATA 21.09.18 128,01 128,01 +1,33 51,875 +40,52%
CONOCOPHILLIPS 21.09.18 65,11 65,11 +1,31 38,246 +58,74%
FRANKLIN RES INC. ... 21.09.18 28,32 28,32 +1,29 -6,398 -22,59%
CINTAS 21.09.18 181,14 181,14 +1,13 103,379 +57,07%
ADVANCE AUTO PA... 21.09.18 145,03 145,03 +1,10 118,020 +81,38%
CINCINNATI FINL ... 21.09.18 67,44 67,44 +1,09 3,021 +4,48%
AMETEK INC. ... 21.09.18 69,40 69,40 +1,09 16,721 +24,09%
CLOROX 21.09.18 130,00 130,00 +1,04 17,251 +13,27%
BOSTON PROPERTIES... 21.09.18 107,23 107,23 +1,04 4,860 +4,53%
AUTOZONE INC. ... 21.09.18 648,27 648,27 +1,02 257,476 +39,72%
EXTRA SPACE ST.SBI... 21.09.18 74,59 74,59 +0,84 9,751 +13,07%
APACHE 21.09.18 39,51 39,51 +0,79 3,559 +9,01%
BROADRIDGE FINL... 21.09.18 113,59 113,59 +0,78 79,293 +69,81%
COOPER COS INC. ... 21.09.18 227,80 227,80 +0,76 33,148 +14,55%
SALESFORCE 21.09.18 133,15 133,15 +0,71 90,278 +67,80%
CATERPILLAR 21.09.18 132,71 132,71 +0,69 36,719 +27,67%
AES 21.09.18 11,74 11,74 +0,69 2,795 +23,81%
MOLSON COORS B DL... 21.09.18 55,24 55,24 +0,64 -11,510 -20,84%
ALASKA AIR GRP INC. ... 21.09.18 59,44 59,44 +0,56 -2,054 -3,46%
ROCKWELL COLL. 21.09.18 120,94 120,94 +0,52 12,012 +9,93%
MASTERCARD 21.09.18 188,99 188,99 +0,52 111,664 +59,08%
ALTRIA 21.09.18 53,15 53,15 +0,51 1,629 +3,07%
CHEVRON 21.09.18 102,23 102,23 +0,50 5,372 +5,26%
AMGEN 21.09.18 174,84 174,84 +0,48 19,375 +11,08%
AVALONBAY COMM. ... 21.09.18 156,51 156,51 +0,48 7,443 +4,76%
BK OF NY MELLON 21.09.18 45,23 45,23 +0,47 1,308 +2,89%
GALLAGHER , A.J. ... 21.09.18 64,80 64,80 +0,47 18,187 +28,07%
COLGATE PALMO. 21.09.18 58,60 58,60 +0,45 -1,286 -2,20%
ALLIANCE DATA SYS... 21.09.18 211,62 211,62 +0,44 41,038 +19,39%
CENTENE CORP. ... 21.09.18 122,26 122,26 +0,44 72,432 +59,24%
ANALOG DEVICES 21.09.18 80,91 80,91 +0,42 11,968 +14,79%
CME GROUP 21.09.18 147,91 147,91 +0,42 52,077 +35,21%
AMER. ELEC PWR 21.09.18 60,60 60,60 +0,41 0,241 +0,40%
NRG ENERGY INC. ... 21.09.18 30,47 30,47 +0,30 15,084 +49,51%
AVERY DENNISON ... 21.09.18 95,66 95,66 +0,29 14,158 +14,80%
CF INDS HLDGS ... 21.09.18 45,55 45,55 +0,29 22,967 +50,42%
CUMMINS INC. DL... 21.09.18 128,10 128,10 +0,26 -10,149 -7,92%
SMITH -A.O.- CORP. ... 21.09.18 51,50 51,50 +0,25 2,107 +4,09%
AMERIPRISE 21.09.18 127,12 127,12 +0,24 8,736 +6,87%
SVB FINL GROUP ... 21.09.18 276,53 276,53 +0,21 236,930 +85,68%
AMER. EXPRESS 21.09.18 94,53 94,53 +0,21 26,537 +28,07%
ARCHER DANIELS 21.09.18 42,79 42,79 +0,21 7,389 +17,27%
CADENCE DESIGN SYS... 21.09.18 38,87 38,87 +0,21 8,266 +21,27%
CAPITAL ONE 21.09.18 84,59 84,59 +0,19 19,057 +22,53%
AMEREN CORP. ... 21.09.18 54,30 54,30 +0,17 5,508 +10,14%
AFLAC 21.09.18 40,71 40,71 +0,15 6,333 +15,56%
COCA COLA 21.09.18 39,58 39,58 +0,10 1,345 +3,40%
CIGNA CORP. ... 21.09.18 171,28 171,28 +0,07 19,570 +11,43%
WELLCARE HEALTH... 21.09.18 259,84 259,84 +0,07 231,928 +89,26%
TRANSDIGM GROUP ... 21.09.18 313,74 313,74 +0,02 138,107 +44,02%
AIR PROD. CHEM. ... 21.09.18 145,06 145,06 +0,01 21,404 +14,76%

Verlierer
CBS 21.09.18 46,31 46,31 -3,66 -1,187 -2,56%
ADOBE 21.09.18 221,50 221,50 -3,14 181,050 +81,74%
CHIPOTLE MEX.GR. DL... 21.09.18 402,20 402,20 -2,16 212,921 +52,94%
VIACOM 21.09.18 26,17 26,17 -2,06 4,200 +16,05%
APPLE 21.09.18 185,00 185,00 -1,66 82,248 +44,46%
AMAZON 21.09.18 1.628,22 1.628,22 -1,55 1.679,982 +103,18%
ALBEMARLE CORP. ... 21.09.18 89,41 89,41 -0,78 -17,928 -20,05%
AMERISOURCEBERGEN ... 21.09.18 76,86 76,86 -0,74 10,589 +13,78%
BORGWARNER INC. ... 21.09.18 38,67 38,67 -0,64 -2,515 -6,50%
DIGITAL REALTY TR... 21.09.18 103,09 103,09 -0,60 6,868 +6,66%
BK OF AMERICA 21.09.18 26,43 26,43 -0,53 6,791 +25,69%
BOSTON SCIENT. 21.09.18 32,07 32,07 -0,50 10,606 +33,07%
ABBOTT LABS 21.09.18 58,28 58,28 -0,48 20,428 +35,05%
AETNA INC. ... 21.09.18 174,29 174,29 -0,47 59,236 +33,99%
CABOT OIL&GAS 21.09.18 19,27 19,27 -0,41 -2,320 -12,04%
CITRIX 21.09.18 94,20 94,20 -0,41 45,082 +47,86%
BAXTER 21.09.18 65,84 65,84 -0,35 16,366 +24,86%
ALLSTATE 21.09.18 86,39 86,39 -0,32 11,661 +13,50%
BECTON DICKINSN 21.09.18 222,22 222,22 -0,32 82,237 +37,01%
COMCAST 21.09.18 31,89 31,89 -0,31 0,803 +2,52%
BOEING 21.09.18 313,11 313,11 -0,30 146,958 +46,93%
CA 21.09.18 37,42 37,42 -0,29 13,613 +36,38%
CARNIVAL 21.09.18 56,34 56,34 -0,28 3,342 +5,93%
CERNER CORP. ... 21.09.18 54,56 54,56 -0,27 -3,213 -5,89%
CELGENE 21.09.18 74,62 74,62 -0,24 -28,232 -37,83%
AGILENT 21.09.18 60,10 60,10 -0,23 5,875 +9,78%
AMPHENOL CORP. A... 21.09.18 81,63 81,63 -0,20 14,289 +17,50%
BB&T 21.09.18 43,63 43,63 -0,18 7,026 +16,10%
COMERICA 21.09.18 80,16 80,16 -0,17 24,914 +31,08%
CARDINAL HEALTH... 21.09.18 46,58 46,58 -0,17 -7,424 -15,94%
SCHLUMBERGER 21.09.18 52,39 52,39 -0,17 -3,784 -7,22%
APPLIED MATLS 21.09.18 33,59 33,59 -0,15 -5,893 -17,54%
CH ROBINSON 21.09.18 82,21 82,21 -0,15 28,128 +34,22%
REGIONS FINL 21.09.18 16,46 16,46 -0,12 6,232 +37,86%
BALL CORP. 21.09.18 37,51 37,51 -0,11 3,825 +10,20%
BLACKROCK CL. A DL... 21.09.18 412,17 412,17 -0,10 53,838 +13,06%
BIOGEN 21.09.18 289,95 289,95 -0,08 27,898 +9,62%
CENTERPOINT ENERGY... 21.09.18 23,50 23,50 -0,04 -0,860 -3,66%
BRISTOL MYERS 21.09.18 52,34 52,34 -0,02 -1,308 -2,50%

Mehr Marktdaten und Kurse finden Sie auf www.finanztreff.de